Penitentiary, Colorado
Current Conditions -  °F | °C
As of 5:30 AM on Monday 20 Oct 2014 (Local Time) from K1V6 Reporting Station
Clear Clear  
Wind Chill: 40°   Ceiling: Unl
Heat Index: 45°   Visibility: 10mi
Dew Point: 34°   Wind: 9mph
Humidity: 66%   Direction: 280°W
Pressure: 30.2"   Gusts: NA
Location:  38.533°N, 105.389°W
Report Text: K1V6 201130Z AUTO 28008KT 10SM CLR 07/01 A3020 RMK AO2
Loading
Personal Weather Stations






























Interactive Weather Map
Tropical Storm Tracking
New forecast layout! Learn more

10-Day Weather Forecast

Advertisements
Track Severe Weather on mobile